sensor_id;sensor_type;location;lat;lon;timestamp;P1;durP1;ratioP1;P2;durP2;ratioP2
54025;SDS011;74404;50.662;3.398;2024-01-30T00:00:42;9.05;;;7.20;;
54025;SDS011;74404;50.662;3.398;2024-01-30T00:03:07;12.13;;;7.43;;
54025;SDS011;74404;50.662;3.398;2024-01-30T00:05:33;11.02;;;7.07;;
54025;SDS011;74404;50.662;3.398;2024-01-30T00:07:58;8.93;;;7.15;;
54025;SDS011;74404;50.662;3.398;2024-01-30T00:10:24;11.95;;;7.63;;
54025;SDS011;74404;50.662;3.398;2024-01-30T00:12:49;10.75;;;7.18;;
54025;SDS011;74404;50.662;3.398;2024-01-30T00:15:15;9.23;;;7.18;;
54025;SDS011;74404;50.662;3.398;2024-01-30T00:17:40;11.10;;;7.95;;
54025;SDS011;74404;50.662;3.398;2024-01-30T00:20:06;10.52;;;7.72;;
54025;SDS011;74404;50.662;3.398;2024-01-30T00:22:34;8.90;;;7.18;;
54025;SDS011;74404;50.662;3.398;2024-01-30T00:24:59;13.50;;;7.70;;
54025;SDS011;74404;50.662;3.398;2024-01-30T00:27:25;10.05;;;6.90;;
54025;SDS011;74404;50.662;3.398;2024-01-30T00:29:52;10.63;;;7.45;;
54025;SDS011;74404;50.662;3.398;2024-01-30T00:32:18;9.73;;;7.25;;
54025;SDS011;74404;50.662;3.398;2024-01-30T00:34:44;9.77;;;7.43;;
54025;SDS011;74404;50.662;3.398;2024-01-30T00:37:09;10.80;;;7.47;;
54025;SDS011;74404;50.662;3.398;2024-01-30T00:39:35;8.90;;;7.40;;
54025;SDS011;74404;50.662;3.398;2024-01-30T00:42:01;9.07;;;7.65;;
54025;SDS011;74404;50.662;3.398;2024-01-30T00:44:26;11.73;;;7.40;;
54025;SDS011;74404;50.662;3.398;2024-01-30T00:46:53;11.68;;;8.10;;
54025;SDS011;74404;50.662;3.398;2024-01-30T00:49:19;10.25;;;6.75;;
54025;SDS011;74404;50.662;3.398;2024-01-30T00:51:45;8.35;;;6.80;;
54025;SDS011;74404;50.662;3.398;2024-01-30T00:54:10;9.70;;;7.03;;
54025;SDS011;74404;50.662;3.398;2024-01-30T00:56:35;9.75;;;7.30;;
54025;SDS011;74404;50.662;3.398;2024-01-30T00:59:01;8.85;;;6.97;;
54025;SDS011;74404;50.662;3.398;2024-01-30T01:01:27;10.45;;;7.28;;
54025;SDS011;74404;50.662;3.398;2024-01-30T01:03:53;9.30;;;7.55;;
54025;SDS011;74404;50.662;3.398;2024-01-30T01:06:18;9.55;;;6.90;;
54025;SDS011;74404;50.662;3.398;2024-01-30T01:08:44;12.40;;;7.88;;
54025;SDS011;74404;50.662;3.398;2024-01-30T01:11:09;10.40;;;7.63;;
54025;SDS011;74404;50.662;3.398;2024-01-30T01:13:35;11.65;;;8.00;;
54025;SDS011;74404;50.662;3.398;2024-01-30T01:16:00;9.02;;;6.85;;
54025;SDS011;74404;50.662;3.398;2024-01-30T01:18:26;11.50;;;7.10;;
54025;SDS011;74404;50.662;3.398;2024-01-30T01:20:52;10.13;;;7.90;;
54025;SDS011;74404;50.662;3.398;2024-01-30T01:23:17;10.15;;;7.38;;
54025;SDS011;74404;50.662;3.398;2024-01-30T01:25:43;11.30;;;7.45;;
54025;SDS011;74404;50.662;3.398;2024-01-30T01:28:09;10.00;;;7.43;;
54025;SDS011;74404;50.662;3.398;2024-01-30T01:30:35;9.05;;;7.40;;
54025;SDS011;74404;50.662;3.398;2024-01-30T01:33:00;11.10;;;7.55;;
54025;SDS011;74404;50.662;3.398;2024-01-30T01:35:27;8.95;;;7.20;;
54025;SDS011;74404;50.662;3.398;2024-01-30T01:37:53;11.32;;;8.13;;
54025;SDS011;74404;50.662;3.398;2024-01-30T01:40:25;12.00;;;7.97;;
54025;SDS011;74404;50.662;3.398;2024-01-30T01:42:51;11.27;;;8.10;;
54025;SDS011;74404;50.662;3.398;2024-01-30T01:45:18;14.98;;;7.93;;
54025;SDS011;74404;50.662;3.398;2024-01-30T01:47:44;12.25;;;7.65;;
54025;SDS011;74404;50.662;3.398;2024-01-30T01:50:17;11.27;;;8.43;;
54025;SDS011;74404;50.662;3.398;2024-01-30T01:52:44;9.52;;;7.70;;
54025;SDS011;74404;50.662;3.398;2024-01-30T01:55:12;11.02;;;7.38;;
54025;SDS011;74404;50.662;3.398;2024-01-30T01:57:39;11.07;;;7.50;;
54025;SDS011;74404;50.662;3.398;2024-01-30T02:00:06;10.95;;;8.05;;
54025;SDS011;74404;50.662;3.398;2024-01-30T02:02:35;11.32;;;7.43;;
54025;SDS011;74404;50.662;3.398;2024-01-30T02:05:01;13.48;;;8.50;;
54025;SDS011;74404;50.662;3.398;2024-01-30T02:07:27;10.82;;;8.05;;
54025;SDS011;74404;50.662;3.398;2024-01-30T02:09:53;11.38;;;8.20;;
54025;SDS011;74404;50.662;3.398;2024-01-30T02:12:19;10.30;;;7.68;;
54025;SDS011;74404;50.662;3.398;2024-01-30T02:14:47;9.75;;;8.20;;
54025;SDS011;74404;50.662;3.398;2024-01-30T02:17:15;12.68;;;8.90;;
54025;SDS011;74404;50.662;3.398;2024-01-30T02:19:41;9.98;;;7.50;;
54025;SDS011;74404;50.662;3.398;2024-01-30T02:22:06;10.93;;;8.48;;
54025;SDS011;74404;50.662;3.398;2024-01-30T02:24:32;12.55;;;8.18;;
54025;SDS011;74404;50.662;3.398;2024-01-30T02:26:58;10.45;;;8.23;;
54025;SDS011;74404;50.662;3.398;2024-01-30T02:29:23;10.27;;;7.45;;
54025;SDS011;74404;50.662;3.398;2024-01-30T02:31:49;10.27;;;8.05;;
54025;SDS011;74404;50.662;3.398;2024-01-30T02:34:15;10.00;;;8.25;;
54025;SDS011;74404;50.662;3.398;2024-01-30T02:36:43;9.90;;;7.78;;
54025;SDS011;74404;50.662;3.398;2024-01-30T02:39:09;10.65;;;7.55;;
54025;SDS011;74404;50.662;3.398;2024-01-30T02:41:35;9.32;;;7.57;;
54025;SDS011;74404;50.662;3.398;2024-01-30T02:44:00;10.43;;;7.85;;
54025;SDS011;74404;50.662;3.398;2024-01-30T02:46:26;11.88;;;8.15;;
54025;SDS011;74404;50.662;3.398;2024-01-30T02:48:52;10.65;;;7.72;;
54025;SDS011;74404;50.662;3.398;2024-01-30T02:51:17;10.52;;;8.23;;
54025;SDS011;74404;50.662;3.398;2024-01-30T02:53:43;12.40;;;7.85;;
54025;SDS011;74404;50.662;3.398;2024-01-30T02:56:09;12.32;;;8.20;;
54025;SDS011;74404;50.662;3.398;2024-01-30T02:58:35;13.50;;;8.10;;
54025;SDS011;74404;50.662;3.398;2024-01-30T03:01:02;11.00;;;7.72;;
54025;SDS011;74404;50.662;3.398;2024-01-30T03:03:27;11.68;;;8.02;;
54025;SDS011;74404;50.662;3.398;2024-01-30T03:05:53;10.40;;;7.95;;
54025;SDS011;74404;50.662;3.398;2024-01-30T03:08:19;13.50;;;8.05;;
54025;SDS011;74404;50.662;3.398;2024-01-30T03:10:45;12.32;;;8.32;;
54025;SDS011;74404;50.662;3.398;2024-01-30T03:13:10;11.77;;;8.25;;
54025;SDS011;74404;50.662;3.398;2024-01-30T03:15:36;10.57;;;7.60;;
54025;SDS011;74404;50.662;3.398;2024-01-30T03:18:02;10.23;;;7.93;;
54025;SDS011;74404;50.662;3.398;2024-01-30T03:20:30;10.35;;;7.55;;
54025;SDS011;74404;50.662;3.398;2024-01-30T03:22:56;9.27;;;7.53;;
54025;SDS011;74404;50.662;3.398;2024-01-30T03:25:22;10.05;;;7.32;;
54025;SDS011;74404;50.662;3.398;2024-01-30T03:27:47;11.52;;;7.80;;
54025;SDS011;74404;50.662;3.398;2024-01-30T03:30:13;11.75;;;8.20;;
54025;SDS011;74404;50.662;3.398;2024-01-30T03:32:39;11.68;;;8.10;;
54025;SDS011;74404;50.662;3.398;2024-01-30T03:35:04;10.75;;;7.55;;
54025;SDS011;74404;50.662;3.398;2024-01-30T03:37:30;10.70;;;7.78;;
54025;SDS011;74404;50.662;3.398;2024-01-30T03:39:56;9.25;;;7.25;;
54025;SDS011;74404;50.662;3.398;2024-01-30T03:42:22;8.57;;;7.32;;
54025;SDS011;74404;50.662;3.398;2024-01-30T03:44:47;10.80;;;7.88;;
54025;SDS011;74404;50.662;3.398;2024-01-30T03:47:13;10.75;;;8.23;;
54025;SDS011;74404;50.662;3.398;2024-01-30T03:49:38;10.02;;;7.43;;
54025;SDS011;74404;50.662;3.398;2024-01-30T03:52:04;11.60;;;7.95;;
54025;SDS011;74404;50.662;3.398;2024-01-30T03:54:29;9.95;;;7.95;;
54025;SDS011;74404;50.662;3.398;2024-01-30T03:56:55;12.70;;;8.13;;
54025;SDS011;74404;50.662;3.398;2024-01-30T03:59:20;11.45;;;8.35;;
54025;SDS011;74404;50.662;3.398;2024-01-30T04:01:49;8.88;;;7.43;;
54025;SDS011;74404;50.662;3.398;2024-01-30T04:04:16;9.68;;;7.72;;
54025;SDS011;74404;50.662;3.398;2024-01-30T04:06:45;10.98;;;7.63;;
54025;SDS011;74404;50.662;3.398;2024-01-30T04:09:11;11.90;;;8.00;;
54025;SDS011;74404;50.662;3.398;2024-01-30T04:11:38;9.15;;;7.72;;
54025;SDS011;74404;50.662;3.398;2024-01-30T04:14:04;11.60;;;8.27;;
54025;SDS011;74404;50.662;3.398;2024-01-30T04:16:29;11.57;;;7.97;;
54025;SDS011;74404;50.662;3.398;2024-01-30T04:18:55;9.25;;;7.22;;
54025;SDS011;74404;50.662;3.398;2024-01-30T04:21:21;10.52;;;7.53;;
54025;SDS011;74404;50.662;3.398;2024-01-30T04:23:47;11.57;;;8.10;;
54025;SDS011;74404;50.662;3.398;2024-01-30T04:26:13;10.55;;;7.80;;
54025;SDS011;74404;50.662;3.398;2024-01-30T04:28:40;11.13;;;8.05;;
54025;SDS011;74404;50.662;3.398;2024-01-30T04:31:07;11.80;;;7.70;;
54025;SDS011;74404;50.662;3.398;2024-01-30T04:33:32;9.80;;;7.93;;
54025;SDS011;74404;50.662;3.398;2024-01-30T04:35:58;12.05;;;7.55;;
54025;SDS011;74404;50.662;3.398;2024-01-30T04:38:23;10.65;;;7.95;;
54025;SDS011;74404;50.662;3.398;2024-01-30T04:40:49;11.55;;;8.20;;
54025;SDS011;74404;50.662;3.398;2024-01-30T04:43:14;10.50;;;8.20;;
54025;SDS011;74404;50.662;3.398;2024-01-30T04:45:41;9.30;;;7.10;;
54025;SDS011;74404;50.662;3.398;2024-01-30T04:48:06;11.45;;;8.10;;
54025;SDS011;74404;50.662;3.398;2024-01-30T04:50:32;9.70;;;7.40;;
54025;SDS011;74404;50.662;3.398;2024-01-30T04:52:58;10.60;;;7.22;;
54025;SDS011;74404;50.662;3.398;2024-01-30T04:55:23;10.10;;;6.82;;
54025;SDS011;74404;50.662;3.398;2024-01-30T04:57:49;9.77;;;7.70;;
54025;SDS011;74404;50.662;3.398;2024-01-30T05:00:14;11.18;;;7.78;;
54025;SDS011;74404;50.662;3.398;2024-01-30T05:02:40;9.55;;;7.60;;
54025;SDS011;74404;50.662;3.398;2024-01-30T05:05:06;10.13;;;7.63;;
54025;SDS011;74404;50.662;3.398;2024-01-30T05:07:32;12.55;;;8.25;;
54025;SDS011;74404;50.662;3.398;2024-01-30T05:09:57;9.85;;;7.55;;
54025;SDS011;74404;50.662;3.398;2024-01-30T05:12:22;13.55;;;7.70;;
54025;SDS011;74404;50.662;3.398;2024-01-30T05:14:48;10.77;;;7.93;;
54025;SDS011;74404;50.662;3.398;2024-01-30T05:17:13;11.38;;;8.23;;
54025;SDS011;74404;50.662;3.398;2024-01-30T05:19:39;11.45;;;7.97;;
54025;SDS011;74404;50.662;3.398;2024-01-30T05:22:04;10.50;;;7.35;;
54025;SDS011;74404;50.662;3.398;2024-01-30T05:24:30;11.15;;;7.68;;
54025;SDS011;74404;50.662;3.398;2024-01-30T05:26:55;11.23;;;7.65;;
54025;SDS011;74404;50.662;3.398;2024-01-30T05:29:21;11.23;;;8.18;;
54025;SDS011;74404;50.662;3.398;2024-01-30T05:31:47;11.23;;;7.85;;
54025;SDS011;74404;50.662;3.398;2024-01-30T05:34:12;10.63;;;7.70;;
54025;SDS011;74404;50.662;3.398;2024-01-30T05:36:38;10.45;;;7.53;;
54025;SDS011;74404;50.662;3.398;2024-01-30T05:39:03;9.18;;;7.75;;
54025;SDS011;74404;50.662;3.398;2024-01-30T05:41:29;9.13;;;7.40;;
54025;SDS011;74404;50.662;3.398;2024-01-30T05:43:54;9.95;;;7.00;;
54025;SDS011;74404;50.662;3.398;2024-01-30T05:46:20;11.23;;;7.40;;
54025;SDS011;74404;50.662;3.398;2024-01-30T05:48:45;10.40;;;7.82;;
54025;SDS011;74404;50.662;3.398;2024-01-30T05:51:11;11.38;;;7.68;;
54025;SDS011;74404;50.662;3.398;2024-01-30T05:53:36;12.32;;;7.80;;
54025;SDS011;74404;50.662;3.398;2024-01-30T05:56:02;10.57;;;7.55;;
54025;SDS011;74404;50.662;3.398;2024-01-30T05:58:28;11.20;;;7.43;;
54025;SDS011;74404;50.662;3.398;2024-01-30T06:00:53;9.45;;;7.15;;
54025;SDS011;74404;50.662;3.398;2024-01-30T06:03:19;11.27;;;7.78;;
54025;SDS011;74404;50.662;3.398;2024-01-30T06:05:44;10.85;;;8.02;;
54025;SDS011;74404;50.662;3.398;2024-01-30T06:08:10;9.48;;;7.13;;
54025;SDS011;74404;50.662;3.398;2024-01-30T06:10:35;10.20;;;7.88;;
54025;SDS011;74404;50.662;3.398;2024-01-30T06:13:01;10.27;;;7.28;;
54025;SDS011;74404;50.662;3.398;2024-01-30T06:15:27;10.55;;;7.78;;
54025;SDS011;74404;50.662;3.398;2024-01-30T06:17:54;10.57;;;8.15;;
54025;SDS011;74404;50.662;3.398;2024-01-30T06:20:20;12.15;;;8.18;;
54025;SDS011;74404;50.662;3.398;2024-01-30T06:22:45;10.32;;;7.72;;
54025;SDS011;74404;50.662;3.398;2024-01-30T06:25:11;12.93;;;8.13;;
54025;SDS011;74404;50.662;3.398;2024-01-30T06:27:37;10.50;;;7.93;;
54025;SDS011;74404;50.662;3.398;2024-01-30T06:30:03;9.32;;;7.43;;
54025;SDS011;74404;50.662;3.398;2024-01-30T06:32:29;10.52;;;7.32;;
54025;SDS011;74404;50.662;3.398;2024-01-30T06:34:59;13.02;;;8.23;;
54025;SDS011;74404;50.662;3.398;2024-01-30T06:37:25;10.23;;;7.40;;
54025;SDS011;74404;50.662;3.398;2024-01-30T06:39:50;12.23;;;8.02;;
54025;SDS011;74404;50.662;3.398;2024-01-30T06:42:17;11.60;;;8.05;;
54025;SDS011;74404;50.662;3.398;2024-01-30T06:44:43;11.15;;;7.63;;
54025;SDS011;74404;50.662;3.398;2024-01-30T06:47:08;10.35;;;8.10;;
54025;SDS011;74404;50.662;3.398;2024-01-30T06:49:34;10.45;;;7.75;;
54025;SDS011;74404;50.662;3.398;2024-01-30T06:52:00;8.95;;;7.53;;
54025;SDS011;74404;50.662;3.398;2024-01-30T06:54:25;14.88;;;7.60;;
54025;SDS011;74404;50.662;3.398;2024-01-30T06:56:51;9.48;;;7.25;;
54025;SDS011;74404;50.662;3.398;2024-01-30T06:59:16;9.98;;;7.20;;
54025;SDS011;74404;50.662;3.398;2024-01-30T07:01:41;10.35;;;7.68;;
54025;SDS011;74404;50.662;3.398;2024-01-30T07:04:07;10.73;;;8.05;;
54025;SDS011;74404;50.662;3.398;2024-01-30T07:06:32;10.40;;;7.90;;
54025;SDS011;74404;50.662;3.398;2024-01-30T07:08:58;12.77;;;7.80;;
54025;SDS011;74404;50.662;3.398;2024-01-30T07:11:23;10.57;;;8.02;;
54025;SDS011;74404;50.662;3.398;2024-01-30T07:13:52;11.70;;;7.47;;
54025;SDS011;74404;50.662;3.398;2024-01-30T07:16:17;13.55;;;8.02;;
54025;SDS011;74404;50.662;3.398;2024-01-30T07:18:43;10.57;;;7.63;;
54025;SDS011;74404;50.662;3.398;2024-01-30T07:21:09;11.82;;;7.72;;
54025;SDS011;74404;50.662;3.398;2024-01-30T07:23:35;11.38;;;7.90;;
54025;SDS011;74404;50.662;3.398;2024-01-30T07:26:04;9.55;;;7.63;;
54025;SDS011;74404;50.662;3.398;2024-01-30T07:28:30;9.50;;;7.35;;
54025;SDS011;74404;50.662;3.398;2024-01-30T07:30:55;11.43;;;7.90;;
54025;SDS011;74404;50.662;3.398;2024-01-30T07:33:21;11.18;;;7.38;;
54025;SDS011;74404;50.662;3.398;2024-01-30T07:35:46;12.07;;;7.90;;
54025;SDS011;74404;50.662;3.398;2024-01-30T07:38:12;9.40;;;7.82;;
54025;SDS011;74404;50.662;3.398;2024-01-30T07:40:37;14.60;;;7.60;;
54025;SDS011;74404;50.662;3.398;2024-01-30T07:43:03;11.60;;;8.15;;
54025;SDS011;74404;50.662;3.398;2024-01-30T07:45:28;12.15;;;8.05;;
54025;SDS011;74404;50.662;3.398;2024-01-30T07:47:57;11.07;;;7.53;;
54025;SDS011;74404;50.662;3.398;2024-01-30T07:50:23;13.43;;;7.78;;
54025;SDS011;74404;50.662;3.398;2024-01-30T07:52:48;13.18;;;7.72;;
54025;SDS011;74404;50.662;3.398;2024-01-30T07:55:16;11.85;;;7.97;;
54025;SDS011;74404;50.662;3.398;2024-01-30T07:57:42;15.35;;;8.57;;
54025;SDS011;74404;50.662;3.398;2024-01-30T08:00:08;12.43;;;8.52;;
54025;SDS011;74404;50.662;3.398;2024-01-30T08:02:33;12.38;;;8.25;;
54025;SDS011;74404;50.662;3.398;2024-01-30T08:04:59;14.10;;;8.52;;
54025;SDS011;74404;50.662;3.398;2024-01-30T08:07:24;11.52;;;8.77;;
54025;SDS011;74404;50.662;3.398;2024-01-30T08:09:50;13.88;;;8.77;;
54025;SDS011;74404;50.662;3.398;2024-01-30T08:12:15;13.13;;;8.73;;
54025;SDS011;74404;50.662;3.398;2024-01-30T08:14:41;14.27;;;8.77;;
54025;SDS011;74404;50.662;3.398;2024-01-30T08:17:07;15.02;;;8.70;;
54025;SDS011;74404;50.662;3.398;2024-01-30T08:19:32;13.45;;;8.43;;
54025;SDS011;74404;50.662;3.398;2024-01-30T08:21:58;11.40;;;8.40;;
54025;SDS011;74404;50.662;3.398;2024-01-30T08:24:24;12.48;;;8.23;;
54025;SDS011;74404;50.662;3.398;2024-01-30T08:26:49;10.05;;;8.65;;
54025;SDS011;74404;50.662;3.398;2024-01-30T08:29:15;16.75;;;9.95;;
54025;SDS011;74404;50.662;3.398;2024-01-30T08:31:40;16.50;;;9.35;;
54025;SDS011;74404;50.662;3.398;2024-01-30T08:34:06;16.13;;;9.50;;
54025;SDS011;74404;50.662;3.398;2024-01-30T08:36:31;16.17;;;9.82;;
54025;SDS011;74404;50.662;3.398;2024-01-30T08:38:57;17.90;;;9.15;;
54025;SDS011;74404;50.662;3.398;2024-01-30T08:41:23;15.82;;;9.25;;
54025;SDS011;74404;50.662;3.398;2024-01-30T08:43:49;14.00;;;9.25;;
54025;SDS011;74404;50.662;3.398;2024-01-30T08:46:17;15.00;;;8.32;;
54025;SDS011;74404;50.662;3.398;2024-01-30T08:48:43;14.10;;;7.82;;
54025;SDS011;74404;50.662;3.398;2024-01-30T08:51:09;13.73;;;7.05;;
54025;SDS011;74404;50.662;3.398;2024-01-30T08:53:34;13.43;;;6.60;;
54025;SDS011;74404;50.662;3.398;2024-01-30T08:56:01;16.45;;;6.13;;
54025;SDS011;74404;50.662;3.398;2024-01-30T08:58:27;13.98;;;6.50;;
54025;SDS011;74404;50.662;3.398;2024-01-30T09:00:53;11.57;;;5.47;;
54025;SDS011;74404;50.662;3.398;2024-01-30T09:03:18;12.35;;;4.50;;
54025;SDS011;74404;50.662;3.398;2024-01-30T09:05:44;11.80;;;4.63;;
54025;SDS011;74404;50.662;3.398;2024-01-30T09:08:09;8.82;;;4.05;;
54025;SDS011;74404;50.662;3.398;2024-01-30T09:10:35;8.85;;;4.20;;
54025;SDS011;74404;50.662;3.398;2024-01-30T09:13:00;7.72;;;3.90;;
54025;SDS011;74404;50.662;3.398;2024-01-30T09:15:26;10.40;;;3.83;;
54025;SDS011;74404;50.662;3.398;2024-01-30T09:17:51;8.95;;;3.28;;
54025;SDS011;74404;50.662;3.398;2024-01-30T09:20:17;8.35;;;3.72;;
54025;SDS011;74404;50.662;3.398;2024-01-30T09:22:42;12.15;;;3.58;;
54025;SDS011;74404;50.662;3.398;2024-01-30T09:25:07;8.88;;;2.65;;
54025;SDS011;74404;50.662;3.398;2024-01-30T09:27:34;8.73;;;2.88;;
54025;SDS011;74404;50.662;3.398;2024-01-30T09:29:59;12.73;;;2.70;;
54025;SDS011;74404;50.662;3.398;2024-01-30T09:32:24;9.05;;;2.60;;
54025;SDS011;74404;50.662;3.398;2024-01-30T09:34:50;9.45;;;2.10;;
54025;SDS011;74404;50.662;3.398;2024-01-30T09:37:15;10.70;;;2.35;;
54025;SDS011;74404;50.662;3.398;2024-01-30T09:39:43;8.07;;;2.13;;
54025;SDS011;74404;50.662;3.398;2024-01-30T09:44:45;9.05;;;2.05;;
54025;SDS011;74404;50.662;3.398;2024-01-30T09:47:13;8.07;;;2.22;;
54025;SDS011;74404;50.662;3.398;2024-01-30T09:49:41;8.35;;;2.10;;
54025;SDS011;74404;50.662;3.398;2024-01-30T09:52:08;10.15;;;2.17;;
54025;SDS011;74404;50.662;3.398;2024-01-30T09:54:34;9.90;;;1.88;;
54025;SDS011;74404;50.662;3.398;2024-01-30T09:57:01;7.80;;;1.67;;
54025;SDS011;74404;50.662;3.398;2024-01-30T09:59:26;7.72;;;1.83;;
54025;SDS011;74404;50.662;3.398;2024-01-30T10:01:52;8.80;;;2.00;;
54025;SDS011;74404;50.662;3.398;2024-01-30T10:04:18;7.85;;;2.10;;
54025;SDS011;74404;50.662;3.398;2024-01-30T10:06:44;6.50;;;1.50;;
54025;SDS011;74404;50.662;3.398;2024-01-30T10:09:09;2.97;;;1.17;;
54025;SDS011;74404;50.662;3.398;2024-01-30T10:11:35;6.40;;;1.70;;
54025;SDS011;74404;50.662;3.398;2024-01-30T10:14:01;7.00;;;1.20;;
54025;SDS011;74404;50.662;3.398;2024-01-30T10:16:27;5.40;;;1.40;;
54025;SDS011;74404;50.662;3.398;2024-01-30T10:18:52;7.75;;;1.50;;
54025;SDS011;74404;50.662;3.398;2024-01-30T10:21:18;6.72;;;1.25;;
54025;SDS011;74404;50.662;3.398;2024-01-30T10:23:43;3.40;;;1.30;;
54025;SDS011;74404;50.662;3.398;2024-01-30T10:26:11;8.77;;;1.40;;
54025;SDS011;74404;50.662;3.398;2024-01-30T10:28:37;7.57;;;1.50;;
54025;SDS011;74404;50.662;3.398;2024-01-30T10:31:03;6.38;;;1.20;;
54025;SDS011;74404;50.662;3.398;2024-01-30T10:33:32;6.47;;;1.20;;
54025;SDS011;74404;50.662;3.398;2024-01-30T10:36:04;4.85;;;1.25;;
54025;SDS011;74404;50.662;3.398;2024-01-30T10:38:31;8.05;;;1.35;;
54025;SDS011;74404;50.662;3.398;2024-01-30T10:40:58;4.88;;;0.90;;
54025;SDS011;74404;50.662;3.398;2024-01-30T10:43:32;5.18;;;1.13;;
54025;SDS011;74404;50.662;3.398;2024-01-30T10:46:10;4.20;;;1.13;;
54025;SDS011;74404;50.662;3.398;2024-01-30T10:48:45;5.57;;;1.17;;
54025;SDS011;74404;50.662;3.398;2024-01-30T10:51:29;5.95;;;1.23;;
54025;SDS011;74404;50.662;3.398;2024-01-30T10:53:56;5.05;;;1.27;;
54025;SDS011;74404;50.662;3.398;2024-01-30T10:56:22;5.32;;;1.10;;
54025;SDS011;74404;50.662;3.398;2024-01-30T10:58:51;9.05;;;1.23;;
54025;SDS011;74404;50.662;3.398;2024-01-30T11:01:21;6.22;;;1.20;;
54025;SDS011;74404;50.662;3.398;2024-01-30T11:03:54;4.70;;;1.08;;
54025;SDS011;74404;50.662;3.398;2024-01-30T11:06:24;3.75;;;0.98;;
54025;SDS011;74404;50.662;3.398;2024-01-30T11:09:00;3.35;;;0.93;;
54025;SDS011;74404;50.662;3.398;2024-01-30T11:11:28;6.95;;;1.15;;
54025;SDS011;74404;50.662;3.398;2024-01-30T11:13:53;8.73;;;1.30;;
54025;SDS011;74404;50.662;3.398;2024-01-30T11:16:19;7.10;;;1.38;;
54025;SDS011;74404;50.662;3.398;2024-01-30T11:18:49;3.92;;;1.10;;
54025;SDS011;74404;50.662;3.398;2024-01-30T11:21:16;5.35;;;1.15;;
54025;SDS011;74404;50.662;3.398;2024-01-30T11:23:42;5.53;;;1.38;;
54025;SDS011;74404;50.662;3.398;2024-01-30T11:26:10;4.00;;;1.20;;
54025;SDS011;74404;50.662;3.398;2024-01-30T11:28:36;10.68;;;2.10;;
54025;SDS011;74404;50.662;3.398;2024-01-30T11:31:04;6.72;;;1.95;;
54025;SDS011;74404;50.662;3.398;2024-01-30T11:33:30;6.35;;;1.33;;
54025;SDS011;74404;50.662;3.398;2024-01-30T11:35:59;4.72;;;1.55;;
54025;SDS011;74404;50.662;3.398;2024-01-30T11:38:26;5.10;;;1.80;;
54025;SDS011;74404;50.662;3.398;2024-01-30T11:40:53;7.13;;;1.55;;
54025;SDS011;74404;50.662;3.398;2024-01-30T11:43:19;4.28;;;1.50;;
54025;SDS011;74404;50.662;3.398;2024-01-30T11:45:46;6.70;;;1.40;;
54025;SDS011;74404;50.662;3.398;2024-01-30T11:48:12;11.50;;;1.52;;
54025;SDS011;74404;50.662;3.398;2024-01-30T11:50:38;8.05;;;1.50;;
54025;SDS011;74404;50.662;3.398;2024-01-30T11:53:05;8.30;;;1.13;;
54025;SDS011;74404;50.662;3.398;2024-01-30T11:55:30;4.78;;;1.30;;
54025;SDS011;74404;50.662;3.398;2024-01-30T11:57:56;8.85;;;1.70;;
54025;SDS011;74404;50.662;3.398;2024-01-30T12:00:23;4.90;;;1.25;;
54025;SDS011;74404;50.662;3.398;2024-01-30T12:02:53;11.90;;;1.30;;
54025;SDS011;74404;50.662;3.398;2024-01-30T12:05:23;7.88;;;1.40;;
54025;SDS011;74404;50.662;3.398;2024-01-30T12:07:50;5.32;;;1.40;;
54025;SDS011;74404;50.662;3.398;2024-01-30T12:10:16;5.57;;;1.30;;
54025;SDS011;74404;50.662;3.398;2024-01-30T12:12:46;5.78;;;1.17;;
54025;SDS011;74404;50.662;3.398;2024-01-30T12:15:13;6.88;;;1.50;;
54025;SDS011;74404;50.662;3.398;2024-01-30T12:17:39;4.78;;;1.17;;
54025;SDS011;74404;50.662;3.398;2024-01-30T12:20:09;7.07;;;1.20;;
54025;SDS011;74404;50.662;3.398;2024-01-30T12:22:42;10.13;;;1.42;;
54025;SDS011;74404;50.662;3.398;2024-01-30T12:25:12;4.45;;;1.42;;
54025;SDS011;74404;50.662;3.398;2024-01-30T12:27:38;8.38;;;1.30;;
54025;SDS011;74404;50.662;3.398;2024-01-30T12:30:08;4.47;;;1.10;;
54025;SDS011;74404;50.662;3.398;2024-01-30T12:32:35;3.88;;;1.20;;
54025;SDS011;74404;50.662;3.398;2024-01-30T12:35:01;8.63;;;1.48;;
54025;SDS011;74404;50.662;3.398;2024-01-30T12:37:27;4.45;;;1.08;;
54025;SDS011;74404;50.662;3.398;2024-01-30T12:39:54;4.00;;;1.08;;
54025;SDS011;74404;50.662;3.398;2024-01-30T12:42:20;5.32;;;1.40;;
54025;SDS011;74404;50.662;3.398;2024-01-30T12:44:47;4.07;;;1.10;;
54025;SDS011;74404;50.662;3.398;2024-01-30T12:47:13;4.35;;;0.90;;
54025;SDS011;74404;50.662;3.398;2024-01-30T12:49:41;6.05;;;0.80;;
54025;SDS011;74404;50.662;3.398;2024-01-30T12:52:08;1.67;;;0.70;;
54025;SDS011;74404;50.662;3.398;2024-01-30T12:54:34;3.28;;;1.00;;
54025;SDS011;74404;50.662;3.398;2024-01-30T12:56:59;2.25;;;0.68;;
54025;SDS011;74404;50.662;3.398;2024-01-30T12:59:25;6.00;;;1.10;;
54025;SDS011;74404;50.662;3.398;2024-01-30T13:01:50;2.42;;;0.82;;
54025;SDS011;74404;50.662;3.398;2024-01-30T13:04:15;7.07;;;1.00;;
54025;SDS011;74404;50.662;3.398;2024-01-30T13:06:41;4.80;;;1.17;;
54025;SDS011;74404;50.662;3.398;2024-01-30T13:09:07;4.95;;;1.10;;
54025;SDS011;74404;50.662;3.398;2024-01-30T13:11:32;8.38;;;1.20;;
54025;SDS011;74404;50.662;3.398;2024-01-30T13:13:59;4.70;;;1.08;;
54025;SDS011;74404;50.662;3.398;2024-01-30T13:16:25;5.20;;;1.02;;
54025;SDS011;74404;50.662;3.398;2024-01-30T13:18:50;6.68;;;1.23;;
54025;SDS011;74404;50.662;3.398;2024-01-30T13:21:17;4.05;;;1.20;;
54025;SDS011;74404;50.662;3.398;2024-01-30T13:23:45;6.47;;;1.17;;
54025;SDS011;74404;50.662;3.398;2024-01-30T13:26:11;6.50;;;1.25;;
54025;SDS011;74404;50.662;3.398;2024-01-30T13:28:36;4.90;;;1.20;;
54025;SDS011;74404;50.662;3.398;2024-01-30T13:31:01;3.90;;;1.02;;
54025;SDS011;74404;50.662;3.398;2024-01-30T13:33:27;3.97;;;1.20;;
54025;SDS011;74404;50.662;3.398;2024-01-30T13:35:53;5.70;;;1.15;;
54025;SDS011;74404;50.662;3.398;2024-01-30T13:38:18;4.38;;;1.25;;
54025;SDS011;74404;50.662;3.398;2024-01-30T13:40:44;3.95;;;1.20;;
54025;SDS011;74404;50.662;3.398;2024-01-30T13:43:09;6.15;;;1.30;;
54025;SDS011;74404;50.662;3.398;2024-01-30T13:45:34;4.63;;;1.10;;
54025;SDS011;74404;50.662;3.398;2024-01-30T13:48:00;3.85;;;1.25;;
54025;SDS011;74404;50.662;3.398;2024-01-30T13:50:26;6.35;;;0.90;;
54025;SDS011;74404;50.662;3.398;2024-01-30T13:52:51;3.47;;;0.85;;
54025;SDS011;74404;50.662;3.398;2024-01-30T13:55:17;5.25;;;1.15;;
54025;SDS011;74404;50.662;3.398;2024-01-30T13:57:42;5.32;;;1.17;;
54025;SDS011;74404;50.662;3.398;2024-01-30T14:00:08;5.03;;;1.00;;
54025;SDS011;74404;50.662;3.398;2024-01-30T14:02:34;3.70;;;1.23;;
54025;SDS011;74404;50.662;3.398;2024-01-30T14:04:59;3.95;;;1.00;;
54025;SDS011;74404;50.662;3.398;2024-01-30T14:07:25;3.42;;;0.90;;
54025;SDS011;74404;50.662;3.398;2024-01-30T14:09:50;5.13;;;1.10;;
54025;SDS011;74404;50.662;3.398;2024-01-30T14:12:16;4.90;;;1.20;;
54025;SDS011;74404;50.662;3.398;2024-01-30T14:14:41;4.38;;;1.10;;
54025;SDS011;74404;50.662;3.398;2024-01-30T14:17:07;3.35;;;0.75;;
54025;SDS011;74404;50.662;3.398;2024-01-30T14:19:33;6.07;;;1.02;;
54025;SDS011;74404;50.662;3.398;2024-01-30T14:22:00;7.40;;;1.10;;
54025;SDS011;74404;50.662;3.398;2024-01-30T14:24:26;3.40;;;1.10;;
54025;SDS011;74404;50.662;3.398;2024-01-30T14:26:52;4.45;;;0.93;;
54025;SDS011;74404;50.662;3.398;2024-01-30T14:29:18;4.88;;;1.20;;
54025;SDS011;74404;50.662;3.398;2024-01-30T14:31:43;4.80;;;1.10;;
54025;SDS011;74404;50.662;3.398;2024-01-30T14:34:09;4.18;;;1.10;;
54025;SDS011;74404;50.662;3.398;2024-01-30T14:36:36;4.72;;;1.10;;